Airfield :
LOGIN :

Register | Disclaimer

   EN    FR    IT 

 










Legend :    VFR   Marginal VFR   IFR   Intensive IFR   Very Intensive IFR
Visi :
Ceiling :
>= 8 km
>= 3000ft
5 to 8 km
1000 to 3000 ft
1500m to 5 km
500 to 1000 ft
800 to 1500m
200 to 500 ft
< 800m
< 200 ft
Symbols :   Thunderstorms  Fog  Heavy snow  Heavy precipitations  Wind > 20 kt
SIGMETs :     Misc.  Thunderstorms  Icing  Turbulence  Mountain Waves  Volcanic Ashes







- Airport Elevation : 29 ft


LIRM - Grazzanise Caserta

CURRENT METAR :
  • 251455Z /////KT 9999 FEW030 BKN080 11/04 Q1003 RMK OVC VIS MIN 9999 WIND THR06 08013KT BLU

EXPIRED METARs :
  • 251355Z /////KT 9999 FEW030 SCT080 11/04 Q1003 RMK OVC VIS MIN 9999 WIND THR06 09014KT BLU
  • 251255Z /////KT 9999 FEW030 SCT080 12/05 Q1003

TAF TAF LIRM
Valid from the 25 at 15:00 until the 26 at 00:00 UTC


251400Z 2515/2524 08015KT 9999 SCT025 SCT070
No reported NOTAMs for that airfield.



MET'MAP, your aeronautical weather chart ! - Copyright ORBIFLY December 2007 - Disclaimer

ORBIFLY MET'MAP TEAM :

Programming & Development : Alexandra Zaïnal
Concept & Development : Baudouin d'Aumeries
Co-Development & Prog : Marc-Olivier Méhu
Technical & hardware support : Manuel Goepfert

Contact : metmap@orbifly.com




SOURCES & CREDITS :

   NOAA